sensor_id;sensor_type;location;lat;lon;timestamp;P1;durP1;ratioP1;P2;durP2;ratioP2
76725;SDS011;65651;53.154;17.916;2023-05-02T00:02:03;12.80;;;4.30;;
76725;SDS011;65651;53.154;17.916;2023-05-02T00:04:31;11.70;;;4.30;;
76725;SDS011;65651;53.154;17.916;2023-05-02T00:06:58;8.80;;;4.70;;
76725;SDS011;65651;53.154;17.916;2023-05-02T00:09:27;9.10;;;4.30;;
76725;SDS011;65651;53.154;17.916;2023-05-02T00:11:55;8.30;;;4.00;;
76725;SDS011;65651;53.154;17.916;2023-05-02T00:14:23;10.50;;;4.70;;
76725;SDS011;65651;53.154;17.916;2023-05-02T00:16:50;9.90;;;4.00;;
76725;SDS011;65651;53.154;17.916;2023-05-02T00:19:17;9.00;;;3.90;;
76725;SDS011;65651;53.154;17.916;2023-05-02T00:21:48;14.50;;;4.40;;
76725;SDS011;65651;53.154;17.916;2023-05-02T00:24:16;8.80;;;4.10;;
76725;SDS011;65651;53.154;17.916;2023-05-02T00:26:47;12.00;;;4.00;;
76725;SDS011;65651;53.154;17.916;2023-05-02T00:29:14;9.60;;;3.90;;
76725;SDS011;65651;53.154;17.916;2023-05-02T00:31:41;8.70;;;4.60;;
76725;SDS011;65651;53.154;17.916;2023-05-02T00:34:09;9.50;;;4.20;;
76725;SDS011;65651;53.154;17.916;2023-05-02T00:36:36;11.20;;;4.50;;
76725;SDS011;65651;53.154;17.916;2023-05-02T00:39:04;11.80;;;4.30;;
76725;SDS011;65651;53.154;17.916;2023-05-02T00:41:31;9.90;;;3.60;;
76725;SDS011;65651;53.154;17.916;2023-05-02T00:43:58;8.90;;;3.30;;
76725;SDS011;65651;53.154;17.916;2023-05-02T00:46:29;7.90;;;3.70;;
76725;SDS011;65651;53.154;17.916;2023-05-02T00:48:59;7.60;;;3.80;;
76725;SDS011;65651;53.154;17.916;2023-05-02T00:51:28;12.10;;;3.60;;
76725;SDS011;65651;53.154;17.916;2023-05-02T00:53:55;12.40;;;4.40;;
76725;SDS011;65651;53.154;17.916;2023-05-02T00:56:23;9.20;;;3.60;;
76725;SDS011;65651;53.154;17.916;2023-05-02T00:58:50;10.60;;;4.70;;
76725;SDS011;65651;53.154;17.916;2023-05-02T01:12:53;10.00;;;4.20;;
76725;SDS011;65651;53.154;17.916;2023-05-02T01:15:21;9.20;;;4.20;;
76725;SDS011;65651;53.154;17.916;2023-05-02T01:17:49;11.30;;;3.90;;
76725;SDS011;65651;53.154;17.916;2023-05-02T01:20:25;8.80;;;3.30;;
76725;SDS011;65651;53.154;17.916;2023-05-02T01:22:57;10.10;;;4.00;;
76725;SDS011;65651;53.154;17.916;2023-05-02T01:28:13;7.70;;;3.90;;
76725;SDS011;65651;53.154;17.916;2023-05-02T01:31:02;11.40;;;5.10;;
76725;SDS011;65651;53.154;17.916;2023-05-02T01:33:31;9.10;;;3.90;;
76725;SDS011;65651;53.154;17.916;2023-05-02T01:36:01;6.80;;;3.60;;
76725;SDS011;65651;53.154;17.916;2023-05-02T01:38:30;5.90;;;3.50;;
76725;SDS011;65651;53.154;17.916;2023-05-02T01:41:00;9.30;;;3.60;;
76725;SDS011;65651;53.154;17.916;2023-05-02T01:43:33;5.90;;;2.70;;
76725;SDS011;65651;53.154;17.916;2023-05-02T01:46:04;6.80;;;3.60;;
76725;SDS011;65651;53.154;17.916;2023-05-02T01:48:35;9.20;;;4.40;;
76725;SDS011;65651;53.154;17.916;2023-05-02T01:51:03;8.50;;;4.40;;
76725;SDS011;65651;53.154;17.916;2023-05-02T01:53:31;7.90;;;3.20;;
76725;SDS011;65651;53.154;17.916;2023-05-02T01:56:00;7.90;;;3.50;;
76725;SDS011;65651;53.154;17.916;2023-05-02T01:58:30;8.30;;;3.60;;
76725;SDS011;65651;53.154;17.916;2023-05-02T02:00:59;10.10;;;4.00;;
76725;SDS011;65651;53.154;17.916;2023-05-02T02:03:28;7.50;;;3.60;;
76725;SDS011;65651;53.154;17.916;2023-05-02T02:05:57;8.20;;;3.70;;
76725;SDS011;65651;53.154;17.916;2023-05-02T02:08:25;12.50;;;4.50;;
76725;SDS011;65651;53.154;17.916;2023-05-02T02:10:56;9.50;;;4.10;;
76725;SDS011;65651;53.154;17.916;2023-05-02T02:13:30;8.20;;;4.30;;
76725;SDS011;65651;53.154;17.916;2023-05-02T02:16:03;7.30;;;3.80;;
76725;SDS011;65651;53.154;17.916;2023-05-02T02:18:36;10.80;;;4.00;;
76725;SDS011;65651;53.154;17.916;2023-05-02T02:21:06;9.30;;;4.00;;
76725;SDS011;65651;53.154;17.916;2023-05-02T02:23:35;7.10;;;4.10;;
76725;SDS011;65651;53.154;17.916;2023-05-02T02:26:05;8.80;;;4.60;;
76725;SDS011;65651;53.154;17.916;2023-05-02T02:28:36;9.70;;;4.10;;
76725;SDS011;65651;53.154;17.916;2023-05-02T02:31:03;9.00;;;4.00;;
76725;SDS011;65651;53.154;17.916;2023-05-02T02:33:30;9.50;;;3.90;;
76725;SDS011;65651;53.154;17.916;2023-05-02T02:36:10;13.60;;;4.10;;
76725;SDS011;65651;53.154;17.916;2023-05-02T02:38:45;9.40;;;3.80;;
76725;SDS011;65651;53.154;17.916;2023-05-02T02:41:26;8.40;;;3.40;;
76725;SDS011;65651;53.154;17.916;2023-05-02T02:52:04;7.10;;;3.60;;
76725;SDS011;65651;53.154;17.916;2023-05-02T02:55:04;8.40;;;3.50;;
76725;SDS011;65651;53.154;17.916;2023-05-02T02:57:38;9.60;;;5.70;;
76725;SDS011;65651;53.154;17.916;2023-05-02T03:00:21;10.10;;;3.80;;
76725;SDS011;65651;53.154;17.916;2023-05-02T03:02:53;9.30;;;4.10;;
76725;SDS011;65651;53.154;17.916;2023-05-02T03:05:24;6.70;;;3.70;;
76725;SDS011;65651;53.154;17.916;2023-05-02T03:07:52;7.60;;;3.20;;
76725;SDS011;65651;53.154;17.916;2023-05-02T03:10:23;9.20;;;4.10;;
76725;SDS011;65651;53.154;17.916;2023-05-02T03:12:51;9.00;;;3.10;;
76725;SDS011;65651;53.154;17.916;2023-05-02T03:15:28;16.00;;;6.20;;
76725;SDS011;65651;53.154;17.916;2023-05-02T03:18:16;9.10;;;4.30;;
76725;SDS011;65651;53.154;17.916;2023-05-02T03:20:44;9.80;;;4.40;;
76725;SDS011;65651;53.154;17.916;2023-05-02T03:23:12;8.90;;;4.00;;
76725;SDS011;65651;53.154;17.916;2023-05-02T03:25:39;8.10;;;4.00;;
76725;SDS011;65651;53.154;17.916;2023-05-02T03:28:07;7.60;;;4.30;;
76725;SDS011;65651;53.154;17.916;2023-05-02T03:30:35;10.80;;;4.30;;
76725;SDS011;65651;53.154;17.916;2023-05-02T03:33:07;12.10;;;5.30;;
76725;SDS011;65651;53.154;17.916;2023-05-02T03:35:35;11.90;;;5.20;;
76725;SDS011;65651;53.154;17.916;2023-05-02T03:38:02;12.00;;;5.60;;
76725;SDS011;65651;53.154;17.916;2023-05-02T03:40:32;13.50;;;6.00;;
76725;SDS011;65651;53.154;17.916;2023-05-02T03:42:59;11.60;;;4.50;;
76725;SDS011;65651;53.154;17.916;2023-05-02T03:45:28;11.70;;;6.20;;
76725;SDS011;65651;53.154;17.916;2023-05-02T03:47:55;10.40;;;5.50;;
76725;SDS011;65651;53.154;17.916;2023-05-02T03:50:23;11.80;;;5.50;;
76725;SDS011;65651;53.154;17.916;2023-05-02T03:52:51;14.90;;;6.60;;
76725;SDS011;65651;53.154;17.916;2023-05-02T03:55:20;14.90;;;6.60;;
76725;SDS011;65651;53.154;17.916;2023-05-02T03:57:48;14.30;;;6.80;;
76725;SDS011;65651;53.154;17.916;2023-05-02T04:00:15;20.10;;;9.50;;
76725;SDS011;65651;53.154;17.916;2023-05-02T04:02:47;18.50;;;7.90;;
76725;SDS011;65651;53.154;17.916;2023-05-02T04:05:18;16.80;;;6.20;;
76725;SDS011;65651;53.154;17.916;2023-05-02T04:07:47;12.90;;;6.70;;
76725;SDS011;65651;53.154;17.916;2023-05-02T04:10:15;14.20;;;6.40;;
76725;SDS011;65651;53.154;17.916;2023-05-02T04:12:50;17.80;;;7.30;;
76725;SDS011;65651;53.154;17.916;2023-05-02T04:15:18;15.50;;;5.90;;
76725;SDS011;65651;53.154;17.916;2023-05-02T04:17:46;14.70;;;6.40;;
76725;SDS011;65651;53.154;17.916;2023-05-02T04:20:14;12.20;;;5.50;;
76725;SDS011;65651;53.154;17.916;2023-05-02T04:22:45;8.60;;;4.80;;
76725;SDS011;65651;53.154;17.916;2023-05-02T04:25:14;11.30;;;6.20;;
76725;SDS011;65651;53.154;17.916;2023-05-02T04:27:44;16.50;;;6.20;;
76725;SDS011;65651;53.154;17.916;2023-05-02T04:30:15;16.00;;;7.40;;
76725;SDS011;65651;53.154;17.916;2023-05-02T04:32:46;15.30;;;6.90;;
76725;SDS011;65651;53.154;17.916;2023-05-02T04:35:15;14.30;;;6.10;;
76725;SDS011;65651;53.154;17.916;2023-05-02T04:37:43;16.50;;;6.30;;
76725;SDS011;65651;53.154;17.916;2023-05-02T04:40:11;15.80;;;7.20;;
76725;SDS011;65651;53.154;17.916;2023-05-02T04:42:39;19.10;;;8.30;;
76725;SDS011;65651;53.154;17.916;2023-05-02T04:45:16;19.20;;;8.50;;
76725;SDS011;65651;53.154;17.916;2023-05-02T04:47:46;26.30;;;9.50;;
76725;SDS011;65651;53.154;17.916;2023-05-02T04:50:13;15.20;;;6.40;;
76725;SDS011;65651;53.154;17.916;2023-05-02T04:52:41;15.40;;;6.60;;
76725;SDS011;65651;53.154;17.916;2023-05-02T04:55:08;15.30;;;6.10;;
76725;SDS011;65651;53.154;17.916;2023-05-02T04:57:36;15.00;;;6.90;;
76725;SDS011;65651;53.154;17.916;2023-05-02T05:00:06;12.20;;;5.80;;
76725;SDS011;65651;53.154;17.916;2023-05-02T05:02:34;13.40;;;6.60;;
76725;SDS011;65651;53.154;17.916;2023-05-02T05:05:03;13.40;;;7.10;;
76725;SDS011;65651;53.154;17.916;2023-05-02T05:07:36;9.00;;;4.90;;
76725;SDS011;65651;53.154;17.916;2023-05-02T05:10:05;7.80;;;4.70;;
76725;SDS011;65651;53.154;17.916;2023-05-02T05:12:40;10.00;;;6.60;;
76725;SDS011;65651;53.154;17.916;2023-05-02T05:15:10;10.20;;;7.00;;
76725;SDS011;65651;53.154;17.916;2023-05-02T05:17:41;14.70;;;7.60;;
76725;SDS011;65651;53.154;17.916;2023-05-02T05:20:14;13.20;;;6.60;;
76725;SDS011;65651;53.154;17.916;2023-05-02T05:22:41;9.10;;;5.40;;
76725;SDS011;65651;53.154;17.916;2023-05-02T05:25:11;8.90;;;4.90;;
76725;SDS011;65651;53.154;17.916;2023-05-02T05:27:39;11.80;;;5.20;;
76725;SDS011;65651;53.154;17.916;2023-05-02T05:30:06;8.60;;;5.20;;
76725;SDS011;65651;53.154;17.916;2023-05-02T05:32:37;13.10;;;6.50;;
76725;SDS011;65651;53.154;17.916;2023-05-02T05:35:05;10.30;;;5.60;;
76725;SDS011;65651;53.154;17.916;2023-05-02T05:37:33;11.40;;;6.10;;
76725;SDS011;65651;53.154;17.916;2023-05-02T05:40:05;11.40;;;6.00;;
76725;SDS011;65651;53.154;17.916;2023-05-02T05:42:34;11.10;;;5.80;;
76725;SDS011;65651;53.154;17.916;2023-05-02T05:45:06;11.90;;;5.30;;
76725;SDS011;65651;53.154;17.916;2023-05-02T05:47:35;9.70;;;5.40;;
76725;SDS011;65651;53.154;17.916;2023-05-02T05:50:02;10.10;;;6.80;;
76725;SDS011;65651;53.154;17.916;2023-05-02T05:52:30;16.50;;;7.80;;
76725;SDS011;65651;53.154;17.916;2023-05-02T05:55:00;12.90;;;6.90;;
76725;SDS011;65651;53.154;17.916;2023-05-02T05:57:28;12.70;;;6.90;;
76725;SDS011;65651;53.154;17.916;2023-05-02T05:59:56;13.70;;;6.60;;
76725;SDS011;65651;53.154;17.916;2023-05-02T06:02:24;13.40;;;7.10;;
76725;SDS011;65651;53.154;17.916;2023-05-02T06:04:52;14.30;;;7.10;;
76725;SDS011;65651;53.154;17.916;2023-05-02T06:07:22;7.90;;;4.20;;
76725;SDS011;65651;53.154;17.916;2023-05-02T06:09:49;12.40;;;4.80;;
76725;SDS011;65651;53.154;17.916;2023-05-02T06:12:17;10.80;;;6.00;;
76725;SDS011;65651;53.154;17.916;2023-05-02T06:14:46;8.90;;;5.80;;
76725;SDS011;65651;53.154;17.916;2023-05-02T06:17:14;12.10;;;7.00;;
76725;SDS011;65651;53.154;17.916;2023-05-02T06:19:41;8.80;;;6.30;;
76725;SDS011;65651;53.154;17.916;2023-05-02T06:22:11;12.00;;;6.70;;
76725;SDS011;65651;53.154;17.916;2023-05-02T06:24:39;11.40;;;6.40;;
76725;SDS011;65651;53.154;17.916;2023-05-02T06:27:06;9.70;;;6.10;;
76725;SDS011;65651;53.154;17.916;2023-05-02T06:29:34;13.10;;;7.10;;
76725;SDS011;65651;53.154;17.916;2023-05-02T06:32:02;11.10;;;7.50;;
76725;SDS011;65651;53.154;17.916;2023-05-02T06:34:32;14.60;;;6.50;;
76725;SDS011;65651;53.154;17.916;2023-05-02T06:37:00;16.80;;;8.30;;
76725;SDS011;65651;53.154;17.916;2023-05-02T06:39:27;12.30;;;7.40;;
76725;SDS011;65651;53.154;17.916;2023-05-02T06:41:55;10.70;;;6.40;;
76725;SDS011;65651;53.154;17.916;2023-05-02T06:44:24;28.00;;;18.30;;
76725;SDS011;65651;53.154;17.916;2023-05-02T06:46:52;18.40;;;11.50;;
76725;SDS011;65651;53.154;17.916;2023-05-02T06:49:21;16.60;;;10.00;;
76725;SDS011;65651;53.154;17.916;2023-05-02T06:51:49;17.40;;;9.40;;
76725;SDS011;65651;53.154;17.916;2023-05-02T06:54:16;15.30;;;9.80;;
76725;SDS011;65651;53.154;17.916;2023-05-02T06:56:44;14.80;;;9.00;;
76725;SDS011;65651;53.154;17.916;2023-05-02T06:59:11;15.20;;;9.20;;
76725;SDS011;65651;53.154;17.916;2023-05-02T07:01:39;15.00;;;9.00;;
76725;SDS011;65651;53.154;17.916;2023-05-02T07:04:07;11.10;;;8.40;;
76725;SDS011;65651;53.154;17.916;2023-05-02T07:06:38;14.50;;;8.70;;
76725;SDS011;65651;53.154;17.916;2023-05-02T07:09:06;12.80;;;8.50;;
76725;SDS011;65651;53.154;17.916;2023-05-02T07:11:33;20.40;;;11.80;;
76725;SDS011;65651;53.154;17.916;2023-05-02T07:14:00;14.50;;;8.60;;
76725;SDS011;65651;53.154;17.916;2023-05-02T07:16:27;17.50;;;11.00;;
76725;SDS011;65651;53.154;17.916;2023-05-02T07:18:55;19.70;;;11.90;;
76725;SDS011;65651;53.154;17.916;2023-05-02T07:21:22;17.60;;;12.30;;
76725;SDS011;65651;53.154;17.916;2023-05-02T07:23:49;18.90;;;11.60;;
76725;SDS011;65651;53.154;17.916;2023-05-02T07:26:17;24.10;;;10.90;;
76725;SDS011;65651;53.154;17.916;2023-05-02T07:28:45;16.90;;;8.80;;
76725;SDS011;65651;53.154;17.916;2023-05-02T07:31:13;15.70;;;9.10;;
76725;SDS011;65651;53.154;17.916;2023-05-02T07:33:40;21.30;;;10.00;;
76725;SDS011;65651;53.154;17.916;2023-05-02T07:36:07;67.80;;;30.80;;
76725;SDS011;65651;53.154;17.916;2023-05-02T07:38:35;19.60;;;10.00;;
76725;SDS011;65651;53.154;17.916;2023-05-02T07:41:02;21.00;;;15.20;;
76725;SDS011;65651;53.154;17.916;2023-05-02T07:43:29;18.40;;;12.10;;
76725;SDS011;65651;53.154;17.916;2023-05-02T07:45:57;27.50;;;12.10;;
76725;SDS011;65651;53.154;17.916;2023-05-02T07:48:24;67.40;;;26.90;;
76725;SDS011;65651;53.154;17.916;2023-05-02T07:50:54;20.80;;;12.00;;
76725;SDS011;65651;53.154;17.916;2023-05-02T07:53:21;49.70;;;19.90;;
76725;SDS011;65651;53.154;17.916;2023-05-02T07:55:50;21.10;;;10.30;;
76725;SDS011;65651;53.154;17.916;2023-05-02T07:58:17;59.10;;;23.70;;
76725;SDS011;65651;53.154;17.916;2023-05-02T08:00:44;9.30;;;5.60;;
76725;SDS011;65651;53.154;17.916;2023-05-02T08:03:12;22.30;;;11.30;;
76725;SDS011;65651;53.154;17.916;2023-05-02T08:05:40;31.00;;;16.90;;
76725;SDS011;65651;53.154;17.916;2023-05-02T08:08:07;24.40;;;13.80;;
76725;SDS011;65651;53.154;17.916;2023-05-02T08:10:34;17.10;;;11.60;;
76725;SDS011;65651;53.154;17.916;2023-05-02T08:13:01;7.30;;;4.90;;
76725;SDS011;65651;53.154;17.916;2023-05-02T08:15:29;22.00;;;12.50;;
76725;SDS011;65651;53.154;17.916;2023-05-02T08:17:57;23.90;;;12.30;;
76725;SDS011;65651;53.154;17.916;2023-05-02T08:20:25;16.10;;;8.90;;
76725;SDS011;65651;53.154;17.916;2023-05-02T08:22:55;23.90;;;13.20;;
76725;SDS011;65651;53.154;17.916;2023-05-02T08:25:23;12.00;;;7.40;;
76725;SDS011;65651;53.154;17.916;2023-05-02T08:27:50;12.20;;;5.60;;
76725;SDS011;65651;53.154;17.916;2023-05-02T08:30:17;6.50;;;4.70;;
76725;SDS011;65651;53.154;17.916;2023-05-02T08:32:45;5.00;;;3.60;;
76725;SDS011;65651;53.154;17.916;2023-05-02T08:35:13;16.10;;;10.30;;
76725;SDS011;65651;53.154;17.916;2023-05-02T08:37:40;9.90;;;6.40;;
76725;SDS011;65651;53.154;17.916;2023-05-02T08:40:10;6.00;;;3.20;;
76725;SDS011;65651;53.154;17.916;2023-05-02T08:42:41;29.00;;;14.30;;
76725;SDS011;65651;53.154;17.916;2023-05-02T08:45:12;32.70;;;17.60;;
76725;SDS011;65651;53.154;17.916;2023-05-02T08:47:41;13.70;;;5.50;;
76725;SDS011;65651;53.154;17.916;2023-05-02T08:50:09;21.60;;;12.10;;
76725;SDS011;65651;53.154;17.916;2023-05-02T08:52:37;9.10;;;5.80;;
76725;SDS011;65651;53.154;17.916;2023-05-02T08:55:05;10.30;;;6.40;;
76725;SDS011;65651;53.154;17.916;2023-05-02T08:57:33;6.50;;;5.40;;
76725;SDS011;65651;53.154;17.916;2023-05-02T09:00:00;5.10;;;3.60;;
76725;SDS011;65651;53.154;17.916;2023-05-02T09:02:46;6.80;;;3.70;;
76725;SDS011;65651;53.154;17.916;2023-05-02T09:05:18;4.30;;;3.20;;
76725;SDS011;65651;53.154;17.916;2023-05-02T09:07:52;7.80;;;3.90;;
76725;SDS011;65651;53.154;17.916;2023-05-02T09:10:20;6.40;;;3.50;;
76725;SDS011;65651;53.154;17.916;2023-05-02T09:12:47;4.20;;;2.40;;
76725;SDS011;65651;53.154;17.916;2023-05-02T09:15:15;5.80;;;5.00;;
76725;SDS011;65651;53.154;17.916;2023-05-02T09:17:44;4.80;;;3.50;;
76725;SDS011;65651;53.154;17.916;2023-05-02T09:20:13;4.00;;;2.80;;
76725;SDS011;65651;53.154;17.916;2023-05-02T09:22:48;6.30;;;4.80;;
76725;SDS011;65651;53.154;17.916;2023-05-02T09:25:18;5.90;;;3.50;;
76725;SDS011;65651;53.154;17.916;2023-05-02T09:27:51;7.40;;;4.30;;
76725;SDS011;65651;53.154;17.916;2023-05-02T09:30:20;8.40;;;5.50;;
76725;SDS011;65651;53.154;17.916;2023-05-02T09:32:52;7.30;;;4.80;;
76725;SDS011;65651;53.154;17.916;2023-05-02T09:35:23;8.40;;;4.60;;
76725;SDS011;65651;53.154;17.916;2023-05-02T09:37:56;3.90;;;3.20;;
76725;SDS011;65651;53.154;17.916;2023-05-02T09:40:24;4.70;;;3.70;;
76725;SDS011;65651;53.154;17.916;2023-05-02T09:42:53;4.40;;;2.60;;
76725;SDS011;65651;53.154;17.916;2023-05-02T09:45:22;3.90;;;2.20;;
76725;SDS011;65651;53.154;17.916;2023-05-02T09:47:51;4.30;;;2.80;;
76725;SDS011;65651;53.154;17.916;2023-05-02T09:50:32;7.00;;;3.30;;
76725;SDS011;65651;53.154;17.916;2023-05-02T09:53:04;3.50;;;2.10;;
76725;SDS011;65651;53.154;17.916;2023-05-02T09:55:34;2.70;;;1.40;;
76725;SDS011;65651;53.154;17.916;2023-05-02T09:58:02;4.70;;;2.30;;
76725;SDS011;65651;53.154;17.916;2023-05-02T10:00:39;3.60;;;2.00;;
76725;SDS011;65651;53.154;17.916;2023-05-02T10:03:12;3.70;;;1.80;;
76725;SDS011;65651;53.154;17.916;2023-05-02T10:05:43;4.40;;;2.00;;
76725;SDS011;65651;53.154;17.916;2023-05-02T10:08:12;6.60;;;2.20;;
76725;SDS011;65651;53.154;17.916;2023-05-02T10:10:41;3.70;;;2.00;;
76725;SDS011;65651;53.154;17.916;2023-05-02T10:13:12;4.10;;;1.50;;
76725;SDS011;65651;53.154;17.916;2023-05-02T10:15:43;4.50;;;1.90;;
76725;SDS011;65651;53.154;17.916;2023-05-02T10:18:11;5.60;;;1.90;;
76725;SDS011;65651;53.154;17.916;2023-05-02T10:20:46;4.20;;;1.50;;
76725;SDS011;65651;53.154;17.916;2023-05-02T10:23:20;4.20;;;1.80;;
76725;SDS011;65651;53.154;17.916;2023-05-02T10:25:48;5.10;;;2.00;;
76725;SDS011;65651;53.154;17.916;2023-05-02T10:28:15;4.30;;;1.70;;
76725;SDS011;65651;53.154;17.916;2023-05-02T10:30:43;3.20;;;2.00;;
76725;SDS011;65651;53.154;17.916;2023-05-02T10:33:14;3.50;;;2.10;;
76725;SDS011;65651;53.154;17.916;2023-05-02T10:35:43;5.10;;;2.10;;
76725;SDS011;65651;53.154;17.916;2023-05-02T10:38:13;4.30;;;2.10;;
76725;SDS011;65651;53.154;17.916;2023-05-02T10:40:42;3.00;;;1.40;;
76725;SDS011;65651;53.154;17.916;2023-05-02T10:43:26;6.50;;;2.20;;
76725;SDS011;65651;53.154;17.916;2023-05-02T10:45:57;6.10;;;2.20;;
76725;SDS011;65651;53.154;17.916;2023-05-02T10:48:25;4.30;;;1.90;;
76725;SDS011;65651;53.154;17.916;2023-05-02T10:50:53;9.90;;;2.40;;
76725;SDS011;65651;53.154;17.916;2023-05-02T10:58:48;3.80;;;2.20;;
76725;SDS011;65651;53.154;17.916;2023-05-02T11:04:04;4.70;;;2.30;;
76725;SDS011;65651;53.154;17.916;2023-05-02T11:11:50;6.00;;;2.40;;
76725;SDS011;65651;53.154;17.916;2023-05-02T11:19:27;8.20;;;3.50;;
76725;SDS011;65651;53.154;17.916;2023-05-02T11:24:53;6.90;;;2.10;;
76725;SDS011;65651;53.154;17.916;2023-05-02T11:29:59;3.90;;;1.90;;
76725;SDS011;65651;53.154;17.916;2023-05-02T11:33:09;5.60;;;2.40;;
76725;SDS011;65651;53.154;17.916;2023-05-02T11:38:00;6.60;;;2.70;;
76725;SDS011;65651;53.154;17.916;2023-05-02T11:40:30;4.90;;;2.10;;
76725;SDS011;65651;53.154;17.916;2023-05-02T11:42:58;5.30;;;2.40;;
76725;SDS011;65651;53.154;17.916;2023-05-02T11:45:34;4.30;;;1.40;;
76725;SDS011;65651;53.154;17.916;2023-05-02T11:48:03;3.50;;;1.90;;
76725;SDS011;65651;53.154;17.916;2023-05-02T11:50:32;5.70;;;1.80;;
76725;SDS011;65651;53.154;17.916;2023-05-02T11:53:01;6.40;;;1.30;;
76725;SDS011;65651;53.154;17.916;2023-05-02T11:55:28;10.00;;;2.50;;
76725;SDS011;65651;53.154;17.916;2023-05-02T11:57:58;5.50;;;1.50;;
76725;SDS011;65651;53.154;17.916;2023-05-02T12:00:26;4.00;;;1.90;;
76725;SDS011;65651;53.154;17.916;2023-05-02T12:02:53;5.30;;;1.80;;
76725;SDS011;65651;53.154;17.916;2023-05-02T12:05:27;3.00;;;1.40;;
76725;SDS011;65651;53.154;17.916;2023-05-02T12:07:58;3.50;;;1.40;;
76725;SDS011;65651;53.154;17.916;2023-05-02T12:10:36;5.20;;;1.40;;
76725;SDS011;65651;53.154;17.916;2023-05-02T12:13:04;3.70;;;1.50;;
76725;SDS011;65651;53.154;17.916;2023-05-02T12:15:32;6.10;;;1.30;;
76725;SDS011;65651;53.154;17.916;2023-05-02T12:18:00;3.00;;;1.30;;
76725;SDS011;65651;53.154;17.916;2023-05-02T12:20:28;6.40;;;2.70;;
76725;SDS011;65651;53.154;17.916;2023-05-02T12:22:55;5.30;;;2.80;;
76725;SDS011;65651;53.154;17.916;2023-05-02T12:25:23;4.90;;;2.90;;
76725;SDS011;65651;53.154;17.916;2023-05-02T12:27:59;3.70;;;3.00;;
76725;SDS011;65651;53.154;17.916;2023-05-02T12:30:28;5.50;;;2.90;;
76725;SDS011;65651;53.154;17.916;2023-05-02T12:32:57;4.10;;;3.40;;
76725;SDS011;65651;53.154;17.916;2023-05-02T12:35:28;11.00;;;3.20;;
76725;SDS011;65651;53.154;17.916;2023-05-02T12:38:10;5.00;;;3.20;;
76725;SDS011;65651;53.154;17.916;2023-05-02T12:40:38;6.60;;;3.70;;
76725;SDS011;65651;53.154;17.916;2023-05-02T12:43:12;4.40;;;3.30;;
76725;SDS011;65651;53.154;17.916;2023-05-02T12:45:39;5.20;;;3.60;;
76725;SDS011;65651;53.154;17.916;2023-05-02T12:48:17;6.70;;;3.50;;
76725;SDS011;65651;53.154;17.916;2023-05-02T12:50:46;3.50;;;3.00;;
76725;SDS011;65651;53.154;17.916;2023-05-02T12:53:13;4.90;;;3.00;;
76725;SDS011;65651;53.154;17.916;2023-05-02T12:55:41;6.10;;;3.10;;
76725;SDS011;65651;53.154;17.916;2023-05-02T12:58:09;6.50;;;3.60;;
76725;SDS011;65651;53.154;17.916;2023-05-02T13:00:41;4.80;;;3.30;;
76725;SDS011;65651;53.154;17.916;2023-05-02T13:03:09;5.20;;;3.50;;
76725;SDS011;65651;53.154;17.916;2023-05-02T13:05:36;4.30;;;3.20;;
76725;SDS011;65651;53.154;17.916;2023-05-02T13:08:04;5.20;;;3.10;;
76725;SDS011;65651;53.154;17.916;2023-05-02T13:10:31;5.70;;;3.00;;
76725;SDS011;65651;53.154;17.916;2023-05-02T13:12:59;5.00;;;3.40;;
76725;SDS011;65651;53.154;17.916;2023-05-02T13:15:27;6.70;;;3.60;;
76725;SDS011;65651;53.154;17.916;2023-05-02T13:17:54;4.90;;;3.80;;
76725;SDS011;65651;53.154;17.916;2023-05-02T13:20:22;6.00;;;3.60;;
76725;SDS011;65651;53.154;17.916;2023-05-02T13:22:49;7.80;;;4.60;;
76725;SDS011;65651;53.154;17.916;2023-05-02T13:25:16;6.20;;;3.30;;
76725;SDS011;65651;53.154;17.916;2023-05-02T13:27:43;4.70;;;3.30;;
76725;SDS011;65651;53.154;17.916;2023-05-02T13:30:11;6.90;;;3.10;;
76725;SDS011;65651;53.154;17.916;2023-05-02T13:32:40;7.10;;;3.20;;
76725;SDS011;65651;53.154;17.916;2023-05-02T13:35:08;4.70;;;3.70;;
76725;SDS011;65651;53.154;17.916;2023-05-02T13:37:39;5.30;;;3.30;;
76725;SDS011;65651;53.154;17.916;2023-05-02T13:40:10;5.70;;;3.20;;
76725;SDS011;65651;53.154;17.916;2023-05-02T13:42:38;5.20;;;3.00;;
76725;SDS011;65651;53.154;17.916;2023-05-02T13:45:05;7.30;;;2.50;;
76725;SDS011;65651;53.154;17.916;2023-05-02T13:47:34;8.80;;;2.50;;
76725;SDS011;65651;53.154;17.916;2023-05-02T13:50:01;3.70;;;2.70;;
76725;SDS011;65651;53.154;17.916;2023-05-02T13:52:29;3.00;;;2.30;;
76725;SDS011;65651;53.154;17.916;2023-05-02T13:54:56;4.40;;;2.30;;
76725;SDS011;65651;53.154;17.916;2023-05-02T13:57:23;3.80;;;2.50;;
76725;SDS011;65651;53.154;17.916;2023-05-02T13:59:51;2.80;;;1.70;;
76725;SDS011;65651;53.154;17.916;2023-05-02T14:02:25;2.80;;;2.00;;
76725;SDS011;65651;53.154;17.916;2023-05-02T14:04:52;3.00;;;1.80;;
76725;SDS011;65651;53.154;17.916;2023-05-02T14:07:20;3.10;;;1.80;;
76725;SDS011;65651;53.154;17.916;2023-05-02T14:09:47;3.50;;;1.50;;
76725;SDS011;65651;53.154;17.916;2023-05-02T14:12:14;3.20;;;1.60;;
76725;SDS011;65651;53.154;17.916;2023-05-02T14:14:41;2.50;;;1.90;;
76725;SDS011;65651;53.154;17.916;2023-05-02T14:17:09;3.20;;;1.40;;
76725;SDS011;65651;53.154;17.916;2023-05-02T14:19:36;4.20;;;1.80;;
76725;SDS011;65651;53.154;17.916;2023-05-02T14:22:03;4.00;;;1.30;;
76725;SDS011;65651;53.154;17.916;2023-05-02T14:24:31;1.50;;;1.10;;
76725;SDS011;65651;53.154;17.916;2023-05-02T14:26:58;3.30;;;1.20;;
76725;SDS011;65651;53.154;17.916;2023-05-02T14:29:25;2.50;;;1.20;;
76725;SDS011;65651;53.154;17.916;2023-05-02T14:31:52;3.00;;;1.40;;
76725;SDS011;65651;53.154;17.916;2023-05-02T14:34:20;2.10;;;1.10;;
76725;SDS011;65651;53.154;17.916;2023-05-02T14:36:47;1.80;;;1.00;;
76725;SDS011;65651;53.154;17.916;2023-05-02T14:39:15;2.20;;;1.00;;
76725;SDS011;65651;53.154;17.916;2023-05-02T14:41:42;1.80;;;0.80;;
76725;SDS011;65651;53.154;17.916;2023-05-02T14:44:10;4.20;;;1.00;;
76725;SDS011;65651;53.154;17.916;2023-05-02T14:46:37;2.90;;;0.90;;
76725;SDS011;65651;53.154;17.916;2023-05-02T14:49:05;2.70;;;1.00;;
76725;SDS011;65651;53.154;17.916;2023-05-02T14:51:32;1.90;;;1.00;;
76725;SDS011;65651;53.154;17.916;2023-05-02T14:54:00;1.50;;;0.70;;
76725;SDS011;65651;53.154;17.916;2023-05-02T14:56:28;2.30;;;0.80;;
76725;SDS011;65651;53.154;17.916;2023-05-02T14:58:55;2.00;;;0.80;;
76725;SDS011;65651;53.154;17.916;2023-05-02T15:01:22;1.60;;;0.80;;
76725;SDS011;65651;53.154;17.916;2023-05-02T15:03:49;2.30;;;0.80;;
76725;SDS011;65651;53.154;17.916;2023-05-02T15:06:17;1.90;;;0.90;;
76725;SDS011;65651;53.154;17.916;2023-05-02T15:08:46;2.10;;;1.10;;
76725;SDS011;65651;53.154;17.916;2023-05-02T15:11:13;4.30;;;0.80;;
76725;SDS011;65651;53.154;17.916;2023-05-02T15:13:42;2.10;;;0.90;;
76725;SDS011;65651;53.154;17.916;2023-05-02T15:16:09;1.50;;;0.80;;
76725;SDS011;65651;53.154;17.916;2023-05-02T15:18:37;5.90;;;1.10;;
76725;SDS011;65651;53.154;17.916;2023-05-02T15:21:06;2.20;;;1.00;;
76725;SDS011;65651;53.154;17.916;2023-05-02T15:23:33;3.10;;;1.40;;
76725;SDS011;65651;53.154;17.916;2023-05-02T15:26:00;2.80;;;1.30;;
76725;SDS011;65651;53.154;17.916;2023-05-02T15:28:28;2.30;;;1.40;;
76725;SDS011;65651;53.154;17.916;2023-05-02T15:30:55;4.30;;;1.80;;